This is the latest recevied weather packets stored in our database for station/object F4JUT-10. If no packets are shown the sender has not sent any weather packets the latest 10 day(s).
| Time | Temp. | Humidity | Pressure | Rain* | Wind** | Luminosity | Snow |
|---|---|---|---|---|---|---|---|
| 1778089671 | 16.67° C | 56% | 1014.2 hPa | - | - | - | - |
| 1778088771 | 17.78° C | 54% | 1014 hPa | - | - | - | - |
| 1778087871 | 18.33° C | 47% | 1013.8 hPa | - | - | - | - |
| 1778086971 | 18.89° C | 45% | 1013.3 hPa | - | - | - | - |
| 1778086071 | 19.44° C | 43% | 1013.6 hPa | - | - | - | - |
| 1778085171 | 20° C | 43% | 1013.6 hPa | - | - | - | - |
| 1778084271 | 20.56° C | 44% | 1013.6 hPa | - | - | - | - |
| 1778083371 | 20.56° C | 44% | 1013.6 hPa | - | - | - | - |
| 1778082471 | 21.67° C | 41% | 1013.6 hPa | - | - | - | - |
| 1778081570 | 21.67° C | 42% | 1013.7 hPa | - | - | - | - |
| 1778080670 | 22.78° C | 40% | 1013.8 hPa | - | - | - | - |
| 1778079770 | 22.22° C | 42% | 1013.7 hPa | - | - | - | - |
| 1778078870 | 21.67° C | 42% | 1013.8 hPa | - | - | - | - |
| 1778077970 | 21.11° C | 44% | 1014 hPa | - | - | - | - |
| 1778077069 | 20.56° C | 48% | 1014.1 hPa | - | - | - | - |
| 1778076170 | 19.44° C | 53% | 1014.2 hPa | - | - | - | - |
| 1778075269 | 18.89° C | 58% | 1014.4 hPa | - | - | - | - |
| 1778074369 | 18.89° C | 63% | 1014.6 hPa | - | - | - | - |
| 1778073469 | 18.33° C | 62% | 1014.8 hPa | - | - | - | - |
| 1778072569 | 18.33° C | 63% | 1014.9 hPa | - | - | - | - |
| 1778071669 | 18.89° C | 61% | 1014.8 hPa | - | - | - | - |
| 1778070769 | 20° C | 57% | 1014.9 hPa | - | - | - | - |
| 1778069869 | 23.33° C | 40% | 1014.8 hPa | - | - | - | - |
| 1778068969 | 25.56° C | 33% | 1014.6 hPa | - | - | - | - |
| 1778068069 | 28.33° C | 31% | 1014.5 hPa | - | - | - | - |
* Rain since midnight (hover to see other rain measurements)
** Current wind speed in m/s (hover to see current wind gust speed)